CheckWX is a tool to help pilots better visualize weather data.  It is not intended as a substitute for an official pre-flight weather briefing.

20:57:13 UTC

KSUZ METAR
Saline County Regional Airport
Benton, Arkansas, USA
Current

22 mins ago

KSUZ 262035Z AUTO 24011KT 10SM FEW047 32/20 A3012 RMK A01
Observed
Jun-26 @ 20:35 UTC
Wind
  • 240° at 11 KTS
Visibility
10 SM
Flight Rules
VFR
Cloud Levels
  • Few at 4,700' AGL
Temperature
32°C / 90°F
Dewpoint
20°C / 68°F
Heat Index
34°C / 94°F
Humidity
49%
Altimeter
30.12" Hg
Pressure
1020.02 hPa
Previous

42 mins ago

KSUZ 262015Z AUTO 24011KT 10SM FEW042 FEW049 31/20 A3013 RMK A01
Observed
Jun-26 @ 20:15 UTC
Wind
  • 240° at 11 KTS
Visibility
10 SM
Flight Rules
VFR
Cloud Levels
  • Few at 4,200' AGL
  • Few at 4,900' AGL
Temperature
31°C / 88°F
Dewpoint
20°C / 68°F
Heat Index
33°C / 92°F
Humidity
52%
Altimeter
30.13" Hg
Pressure
1020.32 hPa
Previous

1 hour ago

KSUZ 261955Z AUTO 22010G17KT 10SM FEW039 31/20 A3013 RMK A01
Observed
Jun-26 @ 19:55 UTC
Wind
  • 220° at 10 KTS
  • Gusting to 17 KTS
Visibility
10 SM
Flight Rules
VFR
Cloud Levels
  • Few at 3,900' AGL
Temperature
31°C / 88°F
Dewpoint
20°C / 68°F
Heat Index
33°C / 92°F
Humidity
52%
Altimeter
30.13" Hg
Pressure
1020.32 hPa